Sahiwal, Pakistan
Current Conditions -  °F | °C
As of 7:55 PM on Sunday 23 Nov 2014 (Local Time) from OPMT Reporting Station
Smoke Smoke  
Wind Chill: 63°   Ceiling: Unl
Heat Index: 63°   Visibility: 1.5mi
Dew Point: 52°   Wind: 0mph
Humidity: 68%   Direction: NA
Pressure: 29.97"   Gusts: NA
Location:  30.67°N, 73.11°E
Report Text: OPMT 231455Z 00000KT 2500 FU NSC 17/11 Q1015 NOSIG
Loading
Personal Weather Stations






























Interactive Weather Map New forecast layout! Learn more

10-Day Weather Forecast

Advertisements
Track Severe Weather on mobile